Time;durP1;ratioP1;P1;durP2;ratioP2;P2;SDS_P1;SDS_P2;PMS_P1;PMS_P2;Temp;Humidity;BMP_temperature;BMP_pressure;BME280_temperature;BME280_humidity;BME280_pressure;Samples;Min_cycle;Max_cycle;Signal;HPM_P1;HPM_P2
2021/04/29 00:00:53;;;;;;;9.75;7.10;;;13.50;77.30;;;13.95;59.99;96221.78;5045032;28;20051;-46
2021/04/29 00:03:21;;;;;;;6.95;5.95;;;13.50;77.60;;;13.95;60.15;96222.59;5044567;28;20362;-46
2021/04/29 00:05:50;;;;;;;8.07;6.35;;;13.50;77.40;;;13.97;60.10;96225.06;5044794;28;20063;-48
2021/04/29 00:08:24;;;;;;;7.18;6.40;;;13.50;77.30;;;13.96;60.18;96223.44;5044599;28;20057;-45
2021/04/29 00:10:53;;;;;;;9.40;5.88;;;13.50;77.30;;;13.92;60.50;96220.38;5045025;28;20040;-45
2021/04/29 00:13:22;;;;;;;7.03;5.68;;;13.50;77.00;;;13.90;60.29;96224.28;5045157;28;20049;-47
2021/04/29 00:15:52;;;;;;;8.38;5.55;;;13.60;76.60;;;13.87;60.36;96224.72;5043813;28;20055;-48
2021/04/29 00:18:21;;;;;;;6.60;5.50;;;13.60;76.50;;;13.83;60.68;96220.84;5044357;28;20057;-48
2021/04/29 00:20:57;;;;;;;5.97;5.18;;;13.60;76.70;;;13.85;60.92;96221.44;5046107;28;20063;-47
2021/04/29 00:23:27;;;;;;;6.72;5.55;;;13.60;76.60;;;13.80;61.01;96224.75;5043934;28;20053;-50
2021/04/29 00:25:56;;;;;;;7.53;6.30;;;13.50;77.00;;;13.78;61.29;96222.31;5044619;28;20343;-45
2021/04/29 00:28:25;;;;;;;8.73;6.40;;;13.50;77.30;;;13.78;61.08;96230.34;5045901;28;20049;-49
2021/04/29 00:30:53;;;;;;;7.97;6.20;;;13.40;77.50;;;13.76;61.30;96231.59;5045726;28;20238;-46
2021/04/29 00:33:22;;;;;;;7.95;5.88;;;13.40;77.80;;;13.73;61.43;96238.19;5042710;28;20045;-48
2021/04/29 00:35:50;;;;;;;9.43;6.30;;;13.40;77.90;;;13.69;61.78;96242.34;5043429;28;20063;-51
2021/04/29 00:38:19;;;;;;;7.20;5.90;;;13.40;77.60;;;13.69;61.49;96247.69;5043546;28;20335;-49
2021/04/29 00:40:47;;;;;;;8.40;6.00;;;13.40;78.10;;;13.70;61.79;96259.19;5045807;28;20431;-51
2021/04/29 00:43:15;;;;;;;10.20;6.97;;;13.30;79.80;;;13.63;62.00;96258.41;5047170;28;20048;-49
2021/04/29 00:45:45;;;;;;;11.48;7.20;;;13.20;79.10;;;13.66;61.97;96253.44;5048420;28;20350;-48
2021/04/29 00:48:14;;;;;;;7.90;6.95;;;13.30;80.00;;;13.69;61.72;96258.38;5048767;28;20053;-47
2021/04/29 00:50:43;;;;;;;7.97;6.35;;;13.30;79.60;;;13.62;62.42;96262.94;5049667;28;20045;-48
2021/04/29 00:53:11;;;;;;;8.05;6.88;;;13.20;82.80;;;13.52;63.00;96260.72;5046420;28;20372;-47
2021/04/29 00:55:40;;;;;;;7.72;6.57;;;13.10;81.40;;;13.39;63.18;96269.63;5048412;28;20057;-48
2021/04/29 00:58:09;;;;;;;8.73;6.80;;;12.90;82.40;;;13.23;64.27;96262.06;5064150;28;20059;-46
2021/04/29 01:00:40;;;;;;;9.38;7.13;;;12.70;82.60;;;13.21;64.46;96261.44;5048120;28;20612;-48
2021/04/29 01:03:23;;;;;;;8.88;6.20;;;12.70;84.30;;;13.04;65.40;96271.78;5047759;28;20047;-50
2021/04/29 01:06:07;;;;;;;9.45;7.70;;;12.50;86.30;;;12.96;65.00;96274.69;5046070;28;20063;-47
2021/04/29 01:09:19;;;;;;;11.50;8.35;;;12.40;86.80;;;12.97;64.90;96281.69;5047314;28;20041;-49
2021/04/29 01:11:58;;;;;;;9.93;8.18;;;12.40;87.10;;;12.89;65.41;96272.03;5041306;28;20060;-50
2021/04/29 01:14:29;;;;;;;10.15;7.93;;;12.30;88.70;;;12.80;65.35;96270.63;5049153;28;20731;-47
2021/04/29 01:16:59;;;;;;;10.02;8.95;;;12.10;88.20;;;12.64;66.65;96273.72;5046078;28;20528;-46
2021/04/29 01:19:48;;;;;;;13.15;9.68;;;12.00;87.90;;;12.69;65.85;96279.25;5047684;28;20053;-48
2021/04/29 01:22:16;;;;;;;11.73;9.57;;;12.10;87.20;;;12.59;66.19;96283.16;5046554;28;20377;-48
2021/04/29 01:24:59;;;;;;;11.95;9.13;;;12.10;87.70;;;12.62;67.15;96284.63;5047252;28;20346;-49
2021/04/29 01:27:29;;;;;;;14.15;10.13;;;12.30;87.40;;;12.61;66.66;96283.78;5046770;28;20051;-48
2021/04/29 01:30:01;;;;;;;9.52;8.52;;;12.20;88.30;;;12.60;66.05;96287.50;5046410;28;20059;-50
2021/04/29 01:32:31;;;;;;;11.80;10.00;;;12.20;87.60;;;12.65;65.58;96275.38;5047232;28;20045;-46
2021/04/29 01:35:00;;;;;;;11.60;9.60;;;12.20;85.80;;;12.72;65.77;96279.66;5048487;28;20212;-47
2021/04/29 01:37:29;;;;;;;11.60;9.68;;;12.40;86.10;;;12.74;65.92;96284.81;5045630;28;20355;-49
2021/04/29 01:40:00;;;;;;;13.43;9.75;;;12.50;84.80;;;12.74;65.58;96282.94;5048423;28;20055;-49
2021/04/29 01:42:28;;;;;;;11.93;9.52;;;12.60;84.60;;;12.82;65.19;96279.25;5046474;28;20049;-48
2021/04/29 01:44:57;;;;;;;13.48;11.18;;;12.50;84.80;;;12.84;65.08;96287.88;5046852;28;20343;-46
2021/04/29 01:47:27;;;;;;;14.75;10.82;;;12.40;85.90;;;12.79;65.88;96291.16;5047485;28;20049;-48
2021/04/29 01:49:55;;;;;;;12.60;10.43;;;12.20;86.10;;;12.78;65.27;96294.03;5047012;28;20049;-49
2021/04/29 01:52:24;;;;;;;11.93;10.30;;;12.20;86.40;;;12.72;65.67;96290.34;5047298;28;20056;-47
2021/04/29 01:54:53;;;;;;;14.35;10.88;;;12.10;86.90;;;12.64;66.60;96298.59;5046795;28;20052;-47
2021/04/29 01:57:22;;;;;;;15.85;11.05;;;12.10;88.30;;;12.61;66.78;96298.97;5048080;28;20045;-49
2021/04/29 01:59:51;;;;;;;11.30;9.82;;;12.20;86.80;;;12.66;65.89;96299.19;5048493;28;20067;-46
2021/04/29 02:02:19;;;;;;;14.63;10.80;;;12.20;86.30;;;12.66;66.82;96293.00;5046989;28;20484;-49
2021/04/29 02:04:49;;;;;;;15.70;11.13;;;12.20;86.30;;;12.61;66.67;96307.00;5046760;28;20047;-47
2021/04/29 02:07:18;;;;;;;18.42;11.77;;;12.20;87.10;;;12.59;66.47;96301.84;5046797;28;20083;-47
2021/04/29 02:09:47;;;;;;;14.65;10.23;;;12.20;87.10;;;12.68;66.27;96310.50;5046907;28;20049;-47
2021/04/29 02:12:16;;;;;;;14.15;11.48;;;12.20;87.60;;;12.71;66.46;96311.91;5044787;28;20519;-47
2021/04/29 02:15:00;;;;;;;14.23;11.35;;;12.30;86.90;;;12.73;66.16;96317.88;5047194;28;20277;-47
2021/04/29 02:17:57;;;;;;;13.20;10.80;;;12.30;88.50;;;12.76;67.06;96318.28;5045103;28;20049;-48
2021/04/29 02:20:29;;;;;;;13.68;10.98;;;12.40;86.80;;;12.82;66.00;96321.16;5046402;28;20056;-50
2021/04/29 02:22:58;;;;;;;14.77;11.10;;;12.50;86.30;;;12.86;66.11;96323.19;5045229;28;20053;-49
2021/04/29 02:25:29;;;;;;;14.63;11.73;;;12.50;86.00;;;12.86;65.95;96330.41;5045413;28;20045;-50
2021/04/29 02:27:59;;;;;;;12.85;10.48;;;12.60;85.90;;;12.90;65.80;96332.44;5029006;28;20063;-46
2021/04/29 02:30:28;;;;;;;18.23;11.43;;;12.60;85.40;;;12.90;66.09;96342.31;5044677;28;20060;-46
2021/04/29 02:32:57;;;;;;;14.48;9.85;;;12.60;85.70;;;12.87;66.80;96343.53;5047202;28;20045;-49
2021/04/29 02:35:27;;;;;;;13.75;11.07;;;12.60;85.20;;;12.70;66.71;96363.69;5046694;28;20049;-47
2021/04/29 02:37:56;;;;;;;11.07;8.77;;;12.30;87.30;;;12.60;67.26;96351.56;5045322;28;20057;-48
2021/04/29 02:40:27;;;;;;;9.57;8.18;;;12.30;89.30;;;12.59;67.30;96359.78;5045997;28;20052;-48
2021/04/29 02:43:06;;;;;;;6.28;4.75;;;12.20;87.50;;;12.44;68.96;96370.63;5043676;28;20049;-47
2021/04/29 02:45:35;;;;;;;7.15;5.50;;;12.10;89.80;;;12.33;68.65;96365.91;5060494;28;20059;-46
2021/04/29 02:48:04;;;;;;;5.95;4.30;;;12.10;88.80;;;12.25;68.43;96366.91;5045894;28;20517;-46
2021/04/29 02:50:33;;;;;;;3.80;3.08;;;11.90;89.40;;;12.16;69.12;96368.97;5045056;28;20040;-46
2021/04/29 02:53:02;;;;;;;4.38;3.03;;;11.90;89.40;;;12.13;68.58;96372.03;5047155;28;20055;-48
2021/04/29 02:55:30;;;;;;;4.70;2.75;;;11.80;88.00;;;12.18;67.79;96368.78;5045931;28;20059;-47
2021/04/29 02:58:02;;;;;;;5.05;3.38;;;12.00;87.20;;;11.89;69.20;96368.06;5045412;28;20051;-51
2021/04/29 03:00:31;;;;;;;3.65;2.17;;;11.70;88.80;;;11.71;69.57;96373.09;5044765;28;20056;-48
2021/04/29 03:03:00;;;;;;;3.10;2.40;;;11.50;89.70;;;11.59;70.30;96384.34;5045810;28;20041;-49
2021/04/29 03:05:29;;;;;;;2.38;2.00;;;11.30;90.90;;;11.73;69.48;96381.72;5046190;28;20047;-46
2021/04/29 03:07:59;;;;;;;3.88;2.80;;;11.40;89.70;;;11.71;69.22;96386.44;5046627;28;20059;-48
2021/04/29 03:10:28;;;;;;;2.83;2.25;;;11.40;88.80;;;11.33;70.53;96393.03;5046048;28;20071;-47
2021/04/29 03:12:58;;;;;;;2.75;1.92;;;11.20;90.10;;;11.32;70.94;96399.38;5046648;28;20051;-48
2021/04/29 03:15:27;;;;;;;2.60;1.90;;;11.20;89.90;;;11.35;70.70;96395.50;5046634;28;20059;-49
2021/04/29 03:17:55;;;;;;;2.00;1.63;;;11.20;89.70;;;11.27;70.72;96407.13;5045075;28;20040;-49
2021/04/29 03:20:39;;;;;;;2.08;1.70;;;11.20;89.10;;;11.25;70.71;96413.69;5045306;28;20064;-51
2021/04/29 03:23:07;;;;;;;2.00;1.60;;;11.20;89.20;;;11.36;69.83;96413.09;5046456;28;20580;-47
2021/04/29 03:25:36;;;;;;;1.88;1.42;;;11.30;88.40;;;11.37;69.96;96414.78;5045578;28;20053;-46
2021/04/29 03:28:08;;;;;;;2.13;1.50;;;11.30;88.80;;;11.22;70.01;96418.38;5044834;28;20049;-46
2021/04/29 03:30:36;;;;;;;1.77;1.67;;;11.10;88.70;;;11.09;70.33;96428.09;5044207;28;20057;-47
2021/04/29 03:33:06;;;;;;;2.17;1.83;;;10.90;89.70;;;11.16;69.56;96420.97;5045732;28;20083;-46
2021/04/29 03:35:35;;;;;;;2.05;1.65;;;10.90;89.70;;;11.21;69.52;96424.72;5044642;28;20055;-50
2021/04/29 03:38:04;;;;;;;2.40;1.70;;;10.90;88.80;;;11.27;69.61;96422.31;5045504;28;20052;-47
2021/04/29 03:40:36;;;;;;;2.53;1.85;;;11.10;88.20;;;11.13;69.43;96429.38;5045335;28;20056;-46
2021/04/29 03:43:05;;;;;;;3.88;2.47;;;10.90;88.20;;;11.29;68.72;96436.25;5044095;28;20224;-49
2021/04/29 03:45:34;;;;;;;2.88;2.17;;;11.10;87.20;;;11.22;68.77;96445.03;5045135;28;20083;-45
2021/04/29 03:48:04;;;;;;;2.65;2.45;;;11.00;87.20;;;11.20;68.91;96440.88;5042312;28;20056;-47
2021/04/29 03:50:32;;;;;;;3.83;2.13;;;10.90;87.50;;;11.19;68.67;96441.91;5046102;28;20063;-49
2021/04/29 03:53:01;;;;;;;2.43;2.20;;;10.90;87.10;;;11.08;68.81;96448.59;5043767;28;20049;-50
2021/04/29 03:55:29;;;;;;;2.60;1.83;;;10.80;87.60;;;11.11;68.23;96450.88;5043030;28;20364;-46
2021/04/29 03:57:58;;;;;;;2.83;1.87;;;10.80;87.90;;;11.08;68.21;96450.44;5045659;28;20055;-49
2021/04/29 04:00:26;;;;;;;4.20;1.97;;;10.80;86.50;;;11.02;67.91;96455.50;5044581;28;20260;-46
2021/04/29 04:02:55;;;;;;;4.03;2.33;;;10.80;85.80;;;10.99;68.17;96457.72;5042985;28;20235;-49
2021/04/29 04:05:23;;;;;;;2.65;1.95;;;10.80;86.30;;;11.04;68.03;96458.00;5043151;28;20056;-48
2021/04/29 04:07:52;;;;;;;3.17;2.07;;;10.80;85.70;;;11.02;68.00;96462.69;5044106;28;20102;-47
2021/04/29 04:10:20;;;;;;;3.60;2.20;;;10.80;86.00;;;11.11;67.47;96455.38;5044896;28;20057;-48
2021/04/29 04:12:48;;;;;;;3.97;2.10;;;10.80;85.80;;;11.16;67.51;96461.75;5044328;28;20067;-46
2021/04/29 04:15:16;;;;;;;2.88;2.33;;;10.80;85.50;;;11.16;67.58;96456.44;5044447;28;20227;-46
2021/04/29 04:17:44;;;;;;;4.28;2.83;;;10.90;85.10;;;11.18;67.68;96453.56;5043917;28;20051;-48
2021/04/29 04:20:22;;;;;;;4.25;2.25;;;10.90;85.30;;;11.21;67.16;96459.34;5045274;28;20064;-51
2021/04/29 04:22:51;;;;;;;2.30;1.60;;;10.90;85.10;;;11.26;66.81;96457.94;5044243;28;20045;-52
2021/04/29 04:25:19;;;;;;;2.67;1.80;;;10.90;84.70;;;11.25;66.81;96456.31;5045234;28;20044;-50
2021/04/29 04:27:48;;;;;;;4.25;2.15;;;10.90;84.60;;;11.23;66.39;96461.81;5044309;28;20061;-49
2021/04/29 04:30:18;;;;;;;3.78;2.80;;;10.80;84.80;;;11.30;66.22;96459.19;5045578;28;20052;-48
2021/04/29 04:32:46;;;;;;;3.10;2.20;;;10.90;84.80;;;11.38;66.32;96467.88;5022993;28;20049;-48
2021/04/29 04:35:15;;;;;;;3.60;2.20;;;11.00;84.50;;;11.45;66.39;96459.09;5025252;28;20072;-49
2021/04/29 04:37:44;;;;;;;2.93;2.40;;;11.10;84.00;;;11.53;65.77;96461.59;5024738;28;20621;-45
2021/04/29 04:40:14;;;;;;;3.63;1.90;;;11.10;84.00;;;11.50;65.53;96472.66;5025518;28;20075;-46
2021/04/29 04:42:42;;;;;;;3.00;2.17;;;11.00;83.40;;;11.55;65.54;96475.56;5022871;28;20065;-43
2021/04/29 04:45:11;;;;;;;3.43;2.20;;;11.10;83.30;;;11.55;65.11;96471.03;5024174;28;20056;-45
2021/04/29 04:47:40;;;;;;;2.67;2.10;;;11.10;83.20;;;11.58;65.25;96477.84;5023952;28;20595;-46
2021/04/29 04:50:10;;;;;;;2.60;2.10;;;11.10;83.00;;;11.63;65.17;96478.06;5023177;28;20060;-48
2021/04/29 04:52:38;;;;;;;3.07;1.93;;;11.20;83.00;;;11.66;65.18;96483.00;5022914;28;20053;-47
2021/04/29 04:55:07;;;;;;;4.30;2.40;;;11.20;82.50;;;11.65;65.12;96481.38;5023061;28;20313;-48
2021/04/29 04:57:35;;;;;;;2.95;2.10;;;11.20;82.40;;;11.69;64.72;96487.97;5023988;28;20484;-45
2021/04/29 05:00:05;;;;;;;3.43;2.20;;;11.30;82.70;;;11.73;64.96;96489.22;5025050;28;20054;-44
2021/04/29 05:02:39;;;;;;;5.57;2.40;;;11.30;82.70;;;11.74;64.90;96490.84;5023068;28;20057;-47
2021/04/29 05:05:08;;;;;;;3.47;2.47;;;11.30;82.30;;;11.73;64.39;96491.88;5025269;28;20349;-46
2021/04/29 05:07:36;;;;;;;3.60;2.33;;;11.30;82.00;;;11.73;64.29;96496.34;5024613;28;20079;-45
2021/04/29 05:10:07;;;;;;;4.03;2.43;;;11.30;81.50;;;11.74;64.43;96506.84;5025035;28;20057;-48
2021/04/29 05:12:36;;;;;;;2.72;2.00;;;11.30;81.60;;;11.75;64.32;96502.34;5023574;28;20347;-46
2021/04/29 05:15:06;;;;;;;2.20;1.75;;;11.40;81.50;;;11.75;64.48;96502.34;5025628;28;20063;-45
2021/04/29 05:17:35;;;;;;;2.55;2.15;;;11.30;81.10;;;11.72;64.37;96508.06;5023542;28;20083;-50
2021/04/29 05:20:04;;;;;;;2.92;2.15;;;11.40;80.70;;;11.72;63.96;96510.72;5024753;28;20053;-49
2021/04/29 05:22:32;;;;;;;3.23;1.87;;;11.40;80.70;;;11.75;63.96;96505.00;5024192;28;20201;-48
2021/04/29 05:25:00;;;;;;;3.67;2.10;;;11.50;80.60;;;11.76;64.42;96509.31;5024029;28;20067;-49
2021/04/29 05:27:28;;;;;;;2.63;2.07;;;11.40;80.70;;;11.78;64.42;96497.41;5023449;28;20049;-48
2021/04/29 05:29:56;;;;;;;3.15;1.92;;;11.50;80.80;;;11.82;63.92;96503.19;5024644;28;20351;-44
2021/04/29 05:32:24;;;;;;;4.43;3.10;;;11.50;80.70;;;11.82;64.18;96500.53;5026805;28;20053;-44
2021/04/29 05:34:52;;;;;;;2.70;2.40;;;11.50;80.50;;;11.82;64.12;96504.03;5026856;28;20049;-44
2021/04/29 05:37:21;;;;;;;4.87;2.43;;;11.60;80.40;;;11.82;63.74;96504.03;5027232;28;20235;-44
2021/04/29 05:39:48;;;;;;;4.00;2.60;;;11.50;80.10;;;11.86;63.98;96504.44;5028776;28;20277;-45
2021/04/29 05:42:17;;;;;;;3.00;2.20;;;11.60;79.70;;;11.90;63.96;96500.38;5027001;28;20219;-43
2021/04/29 05:44:46;;;;;;;2.10;1.85;;;11.60;79.50;;;11.91;63.40;96498.56;5026727;28;20060;-46
2021/04/29 05:47:14;;;;;;;3.33;2.22;;;11.60;79.30;;;11.92;63.51;96495.69;5024965;28;20056;-45
2021/04/29 05:49:44;;;;;;;2.67;2.13;;;11.70;79.30;;;11.92;63.25;96495.69;5026876;28;20046;-46
2021/04/29 05:52:12;;;;;;;3.05;2.20;;;11.60;79.30;;;11.94;63.50;96498.16;5026703;28;20063;-43
2021/04/29 05:54:40;;;;;;;3.25;2.88;;;11.60;79.30;;;11.97;63.39;96508.44;5026844;28;20061;-46
2021/04/29 05:57:08;;;;;;;3.00;2.35;;;11.60;79.20;;;11.96;63.39;96502.28;5027620;28;20057;-50
2021/04/29 05:59:36;;;;;;;5.45;2.58;;;11.60;78.70;;;12.01;63.02;96507.00;5028029;28;20057;-45
2021/04/29 06:02:04;;;;;;;4.97;3.03;;;11.70;78.50;;;12.00;62.71;96510.72;5026862;28;20057;-45
2021/04/29 06:04:41;;;;;;;3.97;3.17;;;11.80;77.70;;;11.98;62.17;96512.72;5024346;28;20360;-44
2021/04/29 06:07:14;;;;;;;5.25;3.30;;;11.90;77.10;;;11.96;62.24;96522.78;5025823;28;20047;-47
2021/04/29 06:09:42;;;;;;;4.15;3.17;;;12.00;76.60;;;11.99;62.55;96525.06;5026406;28;20060;-50
2021/04/29 06:12:14;;;;;;;8.38;4.85;;;12.00;76.30;;;11.95;61.77;96523.81;5028337;28;20232;-46
2021/04/29 06:14:43;;;;;;;6.20;3.55;;;12.10;76.10;;;11.88;62.07;96526.41;5024939;28;20064;-46
2021/04/29 06:17:12;;;;;;;22.65;9.88;;;12.10;75.10;;;12.02;62.16;96532.69;5024650;28;20051;-44
2021/04/29 06:19:40;;;;;;;19.42;9.75;;;12.10;75.60;;;12.08;62.27;96533.72;5028060;28;20371;-48
2021/04/29 06:22:08;;;;;;;7.90;4.80;;;12.10;75.50;;;12.10;61.93;96526.34;5026422;28;20052;-45
2021/04/29 06:24:36;;;;;;;5.15;4.32;;;12.10;75.20;;;12.14;61.74;96535.59;5026039;28;20350;-48
2021/04/29 06:27:05;;;;;;;7.60;3.83;;;12.10;75.10;;;12.17;61.32;96532.53;5027478;28;20249;-48
2021/04/29 06:29:34;;;;;;;6.40;4.47;;;12.10;75.00;;;12.19;61.28;96536.66;5026860;28;20378;-50
2021/04/29 06:32:03;;;;;;;5.63;4.50;;;12.10;74.90;;;12.23;61.25;96534.41;5026616;28;20067;-46
2021/04/29 06:34:31;;;;;;;5.28;3.78;;;12.10;74.90;;;12.19;61.08;96536.66;5026241;28;20057;-45
2021/04/29 06:37:01;;;;;;;4.70;3.22;;;12.10;74.30;;;12.16;60.67;96538.91;5024687;28;20049;-47
2021/04/29 06:39:29;;;;;;;5.82;3.78;;;12.20;74.00;;;12.20;60.94;96546.28;5024466;28;20057;-45
2021/04/29 06:41:58;;;;;;;5.22;3.42;;;12.20;74.20;;;12.14;61.10;96541.75;5026469;28;20059;-46
2021/04/29 06:44:26;;;;;;;4.22;3.13;;;12.20;73.40;;;12.16;60.39;96534.38;5025085;28;20049;-48
2021/04/29 06:46:54;;;;;;;7.28;3.55;;;12.00;73.30;;;12.24;60.65;96544.06;4992256;28;20354;-45
2021/04/29 06:49:22;;;;;;;4.90;3.20;;;12.00;74.00;;;12.27;60.58;96545.50;5023031;28;20251;-44
2021/04/29 06:51:50;;;;;;;5.57;3.60;;;12.00;73.90;;;12.21;60.38;96539.97;5025889;28;20063;-44
2021/04/29 06:54:18;;;;;;;5.20;3.72;;;12.00;74.40;;;12.26;60.16;96551.88;5025219;28;20109;-45
2021/04/29 06:56:47;;;;;;;5.13;3.65;;;12.10;73.60;;;12.25;60.49;96555.56;5025638;28;20057;-46
2021/04/29 06:59:15;;;;;;;7.47;5.15;;;12.00;73.60;;;12.23;60.45;96550.41;5023438;28;20247;-45
2021/04/29 07:01:43;;;;;;;6.40;4.18;;;11.90;74.20;;;12.27;60.38;96556.19;5025104;28;20251;-46
2021/04/29 07:04:11;;;;;;;5.55;4.88;;;12.00;74.00;;;12.23;60.04;96557.59;5026792;28;20056;-49
2021/04/29 07:06:39;;;;;;;7.78;3.90;;;12.00;73.90;;;12.23;60.01;96560.25;5025097;28;20045;-45
2021/04/29 07:09:07;;;;;;;3.90;3.20;;;12.10;73.80;;;12.30;60.35;96548.59;5024646;28;20504;-48
2021/04/29 07:11:35;;;;;;;3.55;3.10;;;12.20;73.70;;;12.34;60.06;96557.84;5028117;28;20045;-44
2021/04/29 07:14:04;;;;;;;4.75;3.20;;;12.40;72.90;;;12.34;60.32;96555.19;5024044;28;20342;-44
2021/04/29 07:16:32;;;;;;;8.05;4.10;;;12.40;72.40;;;12.36;60.44;96565.66;5025167;28;20056;-48
2021/04/29 07:19:00;;;;;;;4.80;3.58;;;12.60;72.10;;;12.44;59.48;96559.34;5025376;28;20045;-46
2021/04/29 07:21:28;;;;;;;6.00;3.65;;;12.70;71.70;;;12.31;59.33;96560.09;5025704;28;20051;-46
2021/04/29 07:23:56;;;;;;;4.97;3.88;;;12.80;70.40;;;12.44;59.97;96560.16;5024153;28;20488;-45
2021/04/29 07:26:25;;;;;;;3.95;3.30;;;12.80;71.10;;;12.37;59.26;96552.13;5025050;28;20041;-46
2021/04/29 07:28:54;;;;;;;5.15;4.20;;;12.80;70.30;;;12.48;59.63;96553.38;5024979;28;20376;-47
2021/04/29 07:31:21;;;;;;;9.02;4.15;;;12.80;70.90;;;12.46;59.73;96566.09;5025149;28;20053;-49
2021/04/29 07:34:00;;;;;;;4.25;3.85;;;12.90;69.70;;;12.58;59.36;96561.03;5024744;28;20045;-49
2021/04/29 07:36:28;;;;;;;5.95;4.38;;;12.90;69.30;;;12.55;59.65;96554.25;5024593;28;20049;-44
2021/04/29 07:38:58;;;;;;;5.35;3.85;;;13.00;69.70;;;12.64;59.66;96559.41;5024718;28;20063;-44
2021/04/29 07:41:28;;;;;;;6.75;4.03;;;13.00;69.90;;;12.57;59.43;96551.38;5024666;28;20065;-48
2021/04/29 07:43:57;;;;;;;7.50;4.05;;;13.00;69.10;;;12.60;59.03;96545.63;5024059;28;20045;-45
2021/04/29 07:46:25;;;;;;;6.35;3.60;;;13.10;70.30;;;12.76;59.14;96555.13;5024900;28;20037;-46
2021/04/29 07:48:53;;;;;;;6.93;4.72;;;13.20;69.90;;;12.89;59.57;96551.66;5024623;28;20361;-44
2021/04/29 07:51:21;;;;;;;6.40;4.80;;;13.30;70.00;;;12.97;58.76;96552.31;5007500;28;20394;-44
2021/04/29 07:53:49;;;;;;;6.45;4.00;;;13.30;69.70;;;13.00;58.15;96557.22;5022425;28;20064;-44
2021/04/29 07:56:19;;;;;;;9.18;5.78;;;13.50;68.60;;;13.02;58.31;96565.03;5008432;28;20061;-42
2021/04/29 07:58:47;;;;;;;5.47;3.78;;;13.40;69.00;;;12.98;58.25;96569.16;5024199;28;20563;-46
2021/04/29 08:01:15;;;;;;;6.53;4.32;;;13.50;68.20;;;13.20;58.78;96570.63;5015425;28;20470;-44
2021/04/29 08:03:44;;;;;;;8.68;6.13;;;13.60;68.90;;;13.35;58.81;96572.31;5029639;28;20404;-43
2021/04/29 08:06:12;;;;;;;8.85;6.10;;;13.70;69.00;;;13.50;58.72;96575.59;5035069;28;20049;-45
2021/04/29 08:08:40;;;;;;;6.50;4.50;;;13.80;69.40;;;13.60;58.55;96572.53;5014123;28;20049;-46
2021/04/29 08:11:12;;;;;;;7.22;5.00;;;14.00;68.80;;;13.62;58.22;96575.81;5034889;28;20339;-49
2021/04/29 08:13:40;;;;;;;6.72;4.82;;;14.10;68.10;;;13.69;58.03;96573.97;5032660;28;20362;-48
2021/04/29 08:16:08;;;;;;;8.32;5.45;;;14.20;67.10;;;13.82;57.84;96573.09;5035577;28;20053;-46
2021/04/29 08:18:36;;;;;;;7.40;5.03;;;14.20;68.30;;;13.89;56.53;96578.47;5037100;28;20057;-48
2021/04/29 08:21:07;;;;;;;5.35;4.68;;;14.30;66.70;;;13.90;56.92;96582.78;5026053;28;20049;-44
2021/04/29 08:23:35;;;;;;;6.68;5.13;;;14.30;66.80;;;13.91;56.52;96585.25;5022808;28;20051;-45
2021/04/29 08:26:03;;;;;;;6.07;4.32;;;14.40;66.00;;;13.95;56.50;96580.31;5024548;28;20061;-48
2021/04/29 08:28:31;;;;;;;6.40;4.80;;;14.40;66.00;;;13.89;56.42;96586.50;5025581;28;20059;-45
2021/04/29 08:30:59;;;;;;;7.40;5.22;;;14.30;65.70;;;13.92;55.33;96581.56;5025089;28;20062;-47
2021/04/29 08:33:27;;;;;;;10.43;5.78;;;14.30;65.40;;;13.96;56.00;96581.97;5007501;28;20045;-46
2021/04/29 08:35:59;;;;;;;6.30;5.57;;;14.20;65.60;;;13.89;54.94;96581.13;5022609;28;20072;-44
2021/04/29 08:38:27;;;;;;;7.05;5.00;;;14.10;65.00;;;13.93;55.53;96583.19;5023392;28;20380;-47
2021/04/29 08:40:55;;;;;;;7.65;5.00;;;14.10;65.40;;;13.98;55.83;96590.59;5025040;28;20317;-43
2021/04/29 08:43:23;;;;;;;7.00;5.80;;;14.20;65.50;;;13.98;55.87;96580.72;5024162;28;20057;-47
2021/04/29 08:45:51;;;;;;;8.25;5.43;;;14.10;65.80;;;13.90;55.17;96585.44;5022282;28;20327;-43
2021/04/29 08:48:25;;;;;;;5.25;4.43;;;13.90;64.70;;;13.90;55.64;96596.16;5007260;28;20631;-42
2021/04/29 08:50:53;;;;;;;6.38;5.30;;;13.80;66.20;;;13.96;56.14;96596.16;5024794;28;20551;-41
2021/04/29 08:53:21;;;;;;;8.43;6.07;;;13.90;66.70;;;13.94;56.45;96597.41;5025191;28;20053;-45
2021/04/29 08:55:50;;;;;;;8.02;6.35;;;13.90;67.50;;;13.84;56.29;96595.16;5022879;28;20060;-45
2021/04/29 08:58:19;;;;;;;6.90;5.18;;;13.90;67.30;;;13.92;56.94;96594.94;5023558;28;20058;-47
2021/04/29 09:01:02;;;;;;;8.15;6.28;;;13.90;68.40;;;13.88;57.92;96598.22;5025582;28;20055;-43
2021/04/29 09:03:33;;;;;;;6.63;5.93;;;13.80;70.80;;;13.39;60.12;96601.09;5027239;28;20049;-48
2021/04/29 09:06:06;;;;;;;10.60;7.18;;;13.40;72.90;;;13.47;59.60;96612.63;5028523;28;20049;-43
2021/04/29 09:08:37;;;;;;;8.50;6.00;;;13.40;72.80;;;13.58;59.28;96612.00;5028916;28;20045;-49
2021/04/29 09:11:17;;;;;;;8.35;6.10;;;13.50;71.80;;;13.32;59.42;96610.16;5026323;28;20506;-45
2021/04/29 09:13:59;;;;;;;9.40;6.97;;;13.30;71.60;;;13.46;59.34;96611.00;5028933;28;20048;-46
2021/04/29 09:16:44;;;;;;;7.03;5.57;;;13.40;72.30;;;13.44;59.68;96608.50;5027862;28;20069;-42
2021/04/29 09:19:25;;;;;;;6.72;6.10;;;13.40;72.00;;;13.61;59.18;96594.72;5027130;28;20247;-46
2021/04/29 09:21:55;;;;;;;9.32;7.18;;;13.60;71.60;;;13.72;59.59;96592.25;5027424;28;20067;-45
2021/04/29 09:24:39;;;;;;;10.40;7.03;;;13.70;72.70;;;13.64;59.85;96597.81;5027428;28;20068;-44
2021/04/29 09:27:23;;;;;;;10.73;6.70;;;13.70;71.90;;;13.59;59.31;96598.44;5026494;28;20053;-42
2021/04/29 09:29:59;;;;;;;7.95;7.15;;;13.70;71.00;;;13.73;58.72;96595.78;5028624;28;20049;-44
2021/04/29 09:32:39;;;;;;;12.15;7.10;;;13.80;70.30;;;13.81;58.24;96598.22;5027299;28;20060;-46
2021/04/29 09:35:21;;;;;;;8.73;6.90;;;14.00;69.00;;;13.75;56.34;96591.03;5022756;28;20067;-45
2021/04/29 09:37:49;;;;;;;9.25;6.85;;;14.10;66.40;;;13.81;56.34;96586.72;5026239;28;20049;-47
2021/04/29 09:40:26;;;;;;;10.73;7.32;;;14.30;65.80;;;14.01;56.77;96584.00;5027608;28;20053;-50
2021/04/29 09:42:57;;;;;;;8.65;7.47;;;14.40;66.30;;;13.98;54.29;96591.41;5027330;28;20048;-47
2021/04/29 09:45:31;;;;;;;7.30;6.50;;;14.60;63.00;;;14.16;54.71;96589.94;5027952;28;20049;-45
2021/04/29 09:48:03;;;;;;;6.43;5.22;;;14.60;63.30;;;14.28;55.10;96598.16;5010177;28;20339;-42
2021/04/29 09:50:38;;;;;;;8.07;6.55;;;14.60;64.30;;;14.43;55.37;96597.91;5026806;28;20369;-44
2021/04/29 09:53:11;;;;;;;7.82;6.28;;;14.90;64.50;;;14.58;55.05;96603.84;5025261;28;20050;-47
2021/04/29 09:55:44;;;;;;;7.07;6.25;;;15.10;64.10;;;14.67;52.97;96599.06;5025803;28;20060;-45
2021/04/29 09:58:16;;;;;;;7.47;6.10;;;15.30;61.90;;;14.79;54.22;96596.53;5026836;28;20057;-45
2021/04/29 10:00:47;;;;;;;7.95;6.40;;;15.30;62.80;;;14.92;54.70;96591.13;5027540;28;20254;-46
2021/04/29 10:03:17;;;;;;;7.65;6.43;;;15.40;63.40;;;15.00;53.70;96595.41;5025709;28;20042;-48
2021/04/29 10:05:52;;;;;;;10.75;6.00;;;15.50;62.40;;;14.94;53.11;96587.19;5023794;28;20048;-47
2021/04/29 10:08:27;;;;;;;8.38;5.85;;;15.60;60.50;;;15.11;53.78;96590.19;5024961;28;20053;-49
2021/04/29 10:10:58;;;;;;;8.15;6.38;;;15.70;61.70;;;15.19;53.11;96586.44;5027430;28;20209;-46
2021/04/29 10:13:38;;;;;;;9.90;6.60;;;15.70;61.30;;;15.35;52.44;96588.59;5026559;28;20053;-46
2021/04/29 10:16:06;;;;;;;7.32;5.78;;;15.90;60.20;;;15.48;52.49;96587.66;5019960;28;20057;-45
2021/04/29 10:18:34;;;;;;;9.90;6.28;;;16.10;60.30;;;15.65;52.27;96587.13;5026293;28;20143;-46
2021/04/29 10:21:08;;;;;;;7.65;5.85;;;16.30;60.60;;;15.69;50.43;96586.47;5026624;28;20372;-49
2021/04/29 10:23:38;;;;;;;7.20;6.18;;;16.40;58.50;;;15.72;51.39;96578.00;5024913;28;20061;-46
2021/04/29 10:26:06;;;;;;;6.40;5.80;;;16.40;59.10;;;15.70;51.66;96584.59;5008183;28;20053;-45
2021/04/29 10:28:42;;;;;;;10.85;6.22;;;16.30;59.20;;;15.68;50.93;96594.72;5042169;28;20053;-45
2021/04/29 10:31:24;;;;;;;7.60;5.72;;;16.20;59.10;;;15.52;50.41;96623.75;5026620;28;20049;-49